createdAt,value
2022-10-28T00:01:05.499Z,19.70
2022-10-28T00:03:32.967Z,19.60
2022-10-28T00:06:05.087Z,19.40
2022-10-28T00:08:32.180Z,19.40
2022-10-28T00:11:12.636Z,19.40
2022-10-28T00:13:39.887Z,19.30
2022-10-28T00:16:16.138Z,19.30
2022-10-28T00:18:43.356Z,19.20
2022-10-28T00:21:16.295Z,19.20
2022-10-28T00:23:43.312Z,19.10
2022-10-28T00:26:22.265Z,19.10
2022-10-28T00:28:52.432Z,19.10
2022-10-28T00:31:20.965Z,19.00
2022-10-28T00:33:47.824Z,19.00
2022-10-28T00:36:14.503Z,19.00
2022-10-28T00:38:42.695Z,19.00
2022-10-28T00:41:11.175Z,19.00
2022-10-28T00:43:41.657Z,19.00
2022-10-28T00:46:42.500Z,19.00
2022-10-28T00:49:23.231Z,19.00
2022-10-28T00:51:54.934Z,18.90
2022-10-28T00:54:22.536Z,18.80
2022-10-28T00:56:52.696Z,18.70
2022-10-28T00:59:24.550Z,18.70
2022-10-28T01:01:51.442Z,18.60
2022-10-28T01:04:19.076Z,18.60
2022-10-28T01:06:47.178Z,18.60
2022-10-28T01:09:14.150Z,18.70
2022-10-28T01:11:54.725Z,18.60
2022-10-28T01:14:27.654Z,18.60
2022-10-28T01:17:06.167Z,18.40
2022-10-28T01:20:10.080Z,18.40
2022-10-28T01:22:57.482Z,18.50
2022-10-28T01:25:35.811Z,18.40
2022-10-28T01:28:46.180Z,18.50
2022-10-28T01:31:50.069Z,18.50
2022-10-28T01:34:31.441Z,18.50
2022-10-28T01:37:14.220Z,18.50
2022-10-28T01:40:20.391Z,18.40
2022-10-28T01:43:10.718Z,18.50
2022-10-28T01:45:48.294Z,18.50
2022-10-28T01:48:41.532Z,18.50
2022-10-28T01:51:19.371Z,18.50
2022-10-28T01:53:49.485Z,18.40
2022-10-28T01:56:21.207Z,18.30
2022-10-28T01:58:49.490Z,18.30
2022-10-28T02:01:17.392Z,18.30
2022-10-28T02:03:47.283Z,18.20
2022-10-28T02:06:20.291Z,18.10
2022-10-28T02:08:59.382Z,18.10
2022-10-28T02:11:46.604Z,18.00
2022-10-28T02:14:48.214Z,18.10
2022-10-28T02:17:36.960Z,18.10
2022-10-28T02:20:28.274Z,18.00
2022-10-28T02:23:16.963Z,18.00
2022-10-28T02:26:01.737Z,18.10
2022-10-28T02:28:42.282Z,18.00
2022-10-28T02:31:38.323Z,18.00
2022-10-28T02:34:10.448Z,17.90
2022-10-28T02:36:42.096Z,17.90
2022-10-28T02:39:08.779Z,17.80
2022-10-28T02:41:46.204Z,17.80
2022-10-28T02:44:18.519Z,17.80
2022-10-28T02:46:46.298Z,17.80
2022-10-28T02:49:14.687Z,17.80
2022-10-28T02:52:07.988Z,17.90
2022-10-28T02:55:07.267Z,17.90
2022-10-28T02:57:36.158Z,17.90
2022-10-28T03:00:08.307Z,17.90
2022-10-28T03:02:35.023Z,17.90
2022-10-28T03:05:02.541Z,17.90
2022-10-28T03:07:29.101Z,17.90
2022-10-28T03:09:55.666Z,18.00
2022-10-28T03:12:22.215Z,18.00
2022-10-28T03:14:48.815Z,18.00
2022-10-28T03:17:15.372Z,18.00
2022-10-28T03:19:41.932Z,18.00
2022-10-28T03:22:08.680Z,18.10
2022-10-28T03:24:35.404Z,18.10
2022-10-28T03:27:01.971Z,18.10
2022-10-28T03:29:28.513Z,18.20
2022-10-28T03:31:55.132Z,18.20
2022-10-28T03:34:21.701Z,18.30
2022-10-28T03:36:48.246Z,18.40
2022-10-28T03:39:14.903Z,18.50
2022-10-28T03:41:41.543Z,18.60
2022-10-28T03:44:08.130Z,18.70
2022-10-28T03:46:36.102Z,18.90
2022-10-28T03:49:03.094Z,19.00
2022-10-28T03:51:29.710Z,19.10
2022-10-28T03:53:56.291Z,19.10
2022-10-28T03:56:22.879Z,19.20
2022-10-28T03:58:50.190Z,19.20
2022-10-28T04:01:16.943Z,19.30
2022-10-28T04:03:43.644Z,19.30
2022-10-28T04:06:10.326Z,19.40
2022-10-28T04:08:37.400Z,19.40
2022-10-28T04:11:04.090Z,19.50
2022-10-28T04:13:30.759Z,19.50
2022-10-28T04:15:57.590Z,19.50
2022-10-28T04:18:24.259Z,19.50
2022-10-28T04:20:50.827Z,19.60
2022-10-28T04:23:18.375Z,19.60
2022-10-28T04:25:45.150Z,19.50
2022-10-28T04:28:11.762Z,19.60
2022-10-28T04:30:38.453Z,19.50
2022-10-28T04:33:05.001Z,19.50
2022-10-28T04:35:31.652Z,19.50
2022-10-28T04:37:58.233Z,19.50
2022-10-28T04:40:24.822Z,19.40
2022-10-28T04:42:51.610Z,19.50
2022-10-28T04:45:18.481Z,19.50
2022-10-28T04:47:45.025Z,19.50
2022-10-28T04:50:11.678Z,19.50
2022-10-28T04:52:38.248Z,19.60
2022-10-28T04:55:05.291Z,19.50
2022-10-28T04:57:33.007Z,19.60
2022-10-28T04:59:59.580Z,19.60
2022-10-28T05:02:26.237Z,19.50
2022-10-28T05:04:52.947Z,19.60
2022-10-28T05:07:22.757Z,19.60
2022-10-28T05:09:50.239Z,19.60
2022-10-28T05:12:16.784Z,19.60
2022-10-28T05:14:43.409Z,19.50
2022-10-28T05:17:11.063Z,19.50
2022-10-28T05:19:37.829Z,19.50
2022-10-28T05:22:04.398Z,19.50
2022-10-28T05:24:31.000Z,19.50
2022-10-28T05:26:59.869Z,19.50
2022-10-28T05:29:30.877Z,19.50
2022-10-28T05:32:00.239Z,19.40
2022-10-28T05:34:26.846Z,19.50
2022-10-28T05:36:53.396Z,19.40
2022-10-28T05:39:20.023Z,19.50
2022-10-28T05:41:46.569Z,19.40
2022-10-28T05:44:13.151Z,19.40
2022-10-28T05:46:39.710Z,19.40
2022-10-28T05:49:06.268Z,19.30
2022-10-28T05:51:32.828Z,19.30
2022-10-28T05:53:59.379Z,19.40
2022-10-28T05:56:26.124Z,19.40
2022-10-28T05:58:52.712Z,19.40
2022-10-28T06:01:19.320Z,19.40
2022-10-28T06:03:45.909Z,19.50
2022-10-28T06:06:12.544Z,19.50
2022-10-28T06:08:39.104Z,19.50
2022-10-28T06:11:04.203Z,19.50
2022-10-28T06:13:30.755Z,19.60
2022-10-28T06:15:57.340Z,19.50
2022-10-28T06:18:23.995Z,19.50
2022-10-28T06:20:57.748Z,19.50
2022-10-28T06:23:25.526Z,19.50
2022-10-28T06:25:59.461Z,19.50
2022-10-28T06:28:26.899Z,19.60
2022-10-28T06:30:53.491Z,19.50
2022-10-28T06:33:20.075Z,19.50
2022-10-28T06:35:46.739Z,19.40
2022-10-28T06:38:13.281Z,19.40
2022-10-28T06:40:39.873Z,19.40
2022-10-28T06:43:12.493Z,19.40
2022-10-28T06:45:39.152Z,19.40
2022-10-28T06:48:07.576Z,19.30
2022-10-28T06:50:35.529Z,19.30
2022-10-28T06:53:02.635Z,19.40
2022-10-28T06:55:29.845Z,19.40
2022-10-28T06:58:01.161Z,19.50
2022-10-28T07:00:28.710Z,19.50
2022-10-28T07:02:55.943Z,19.60
2022-10-28T07:05:25.386Z,19.60
2022-10-28T07:07:52.285Z,19.60
2022-10-28T07:10:19.041Z,19.70
2022-10-28T07:12:45.649Z,19.70
2022-10-28T07:15:12.386Z,19.80
2022-10-28T07:17:39.028Z,19.90
2022-10-28T07:20:06.053Z,19.90
2022-10-28T07:22:32.618Z,20.00
2022-10-28T07:24:59.276Z,20.10
2022-10-28T07:27:25.874Z,20.20
2022-10-28T07:29:52.476Z,20.30
2022-10-28T07:32:19.031Z,20.30
2022-10-28T07:34:45.657Z,20.40
2022-10-28T07:37:12.811Z,20.50
2022-10-28T07:39:39.418Z,20.60
2022-10-28T07:42:06.104Z,20.70
2022-10-28T07:44:32.660Z,20.70
2022-10-28T07:46:59.242Z,20.80
2022-10-28T07:49:26.198Z,20.90
2022-10-28T07:51:53.234Z,21.10
2022-10-28T07:54:20.397Z,21.20
2022-10-28T07:56:48.030Z,21.30
2022-10-28T07:59:14.622Z,21.40
2022-10-28T08:01:41.334Z,21.60
2022-10-28T08:04:08.093Z,21.60
2022-10-28T08:06:35.702Z,21.80
2022-10-28T08:09:02.460Z,21.90
2022-10-28T08:11:29.384Z,22.10
2022-10-28T08:13:57.276Z,22.20
2022-10-28T08:16:23.891Z,22.30
2022-10-28T08:18:50.520Z,22.40
2022-10-28T08:21:17.338Z,22.50
2022-10-28T08:23:46.731Z,22.60
2022-10-28T08:26:15.217Z,22.70
2022-10-28T08:28:42.093Z,22.90
2022-10-28T08:31:10.045Z,23.10
2022-10-28T08:33:37.944Z,23.20
2022-10-28T08:36:05.140Z,23.30
2022-10-28T08:38:31.746Z,23.50
2022-10-28T08:41:15.958Z,23.60
2022-10-28T08:44:11.514Z,23.80
2022-10-28T08:46:40.922Z,24.00
2022-10-28T08:49:15.365Z,23.80
2022-10-28T08:52:03.335Z,23.90
2022-10-28T08:55:00.506Z,24.00
2022-10-28T08:57:38.860Z,24.00
2022-10-28T09:00:09.193Z,24.10
2022-10-28T09:03:15.515Z,24.20
2022-10-28T09:05:49.762Z,24.30
2022-10-28T09:08:23.589Z,24.30
2022-10-28T09:11:04.984Z,24.60
2022-10-28T09:14:08.045Z,24.60
2022-10-28T09:17:12.368Z,24.60
2022-10-28T09:19:44.754Z,24.70
2022-10-28T09:22:23.223Z,24.70
2022-10-28T09:25:03.517Z,24.70
2022-10-28T09:27:49.700Z,24.80
2022-10-28T09:30:29.308Z,24.90
2022-10-28T09:33:19.162Z,25.00
2022-10-28T09:35:48.663Z,25.00
2022-10-28T09:38:27.906Z,25.00
2022-10-28T09:41:33.705Z,24.90
2022-10-28T09:44:22.946Z,24.70
2022-10-28T09:46:55.148Z,24.60
2022-10-28T09:49:26.078Z,24.50
2022-10-28T09:52:05.065Z,24.60
2022-10-28T09:54:36.126Z,24.50
2022-10-28T09:57:04.106Z,24.50
2022-10-28T09:59:30.843Z,24.50
2022-10-28T10:01:57.655Z,24.70
2022-10-28T10:04:26.839Z,24.90
2022-10-28T10:07:10.647Z,25.10
2022-10-28T10:09:38.950Z,25.30
2022-10-28T10:12:08.867Z,25.30
2022-10-28T10:14:53.713Z,25.40
2022-10-28T10:17:29.612Z,25.50
2022-10-28T10:20:00.517Z,25.60
2022-10-28T10:22:38.670Z,25.90
2022-10-28T10:25:25.487Z,26.10
2022-10-28T10:28:01.524Z,26.30
2022-10-28T10:30:38.510Z,26.20
2022-10-28T10:33:08.078Z,26.20
2022-10-28T10:35:37.604Z,26.30
2022-10-28T10:38:06.578Z,26.40
2022-10-28T10:40:49.858Z,26.50
2022-10-28T10:43:35.446Z,26.70
2022-10-28T10:46:17.744Z,26.90
2022-10-28T10:48:45.001Z,27.10
2022-10-28T10:51:26.656Z,27.10
2022-10-28T10:54:01.737Z,27.10
2022-10-28T10:56:31.196Z,27.20
2022-10-28T10:59:02.726Z,27.20
2022-10-28T11:01:35.680Z,27.20
2022-10-28T11:04:06.298Z,27.10
2022-10-28T11:06:38.248Z,27.20
2022-10-28T11:09:17.206Z,27.30
2022-10-28T11:11:44.580Z,27.20
2022-10-28T11:14:12.304Z,27.20
2022-10-28T11:16:56.598Z,27.30
2022-10-28T11:19:37.797Z,27.20
2022-10-28T11:22:19.328Z,27.20
2022-10-28T11:25:07.812Z,27.10
2022-10-28T11:27:57.617Z,27.20
2022-10-28T11:30:37.696Z,27.10
2022-10-28T11:33:30.459Z,27.00
2022-10-28T11:36:25.241Z,27.10
2022-10-28T11:39:17.502Z,27.10
2022-10-28T11:41:50.266Z,27.20
2022-10-28T11:44:44.987Z,27.00
2022-10-28T11:47:37.543Z,27.40
2022-10-28T11:50:22.108Z,27.60
2022-10-28T11:53:33.396Z,27.60
2022-10-28T11:56:36.734Z,27.80
2022-10-28T11:59:09.411Z,27.90
2022-10-28T12:02:00.786Z,28.00
2022-10-28T12:04:52.203Z,28.00
2022-10-28T12:07:41.690Z,28.10
2022-10-28T12:10:34.862Z,28.10
2022-10-28T12:13:19.945Z,28.10
2022-10-28T12:15:52.176Z,28.20
2022-10-28T12:18:32.241Z,28.20
2022-10-28T12:21:17.751Z,28.20
2022-10-28T12:23:46.239Z,28.20
2022-10-28T12:26:17.795Z,28.10
2022-10-28T12:28:53.751Z,28.10
2022-10-28T12:31:28.586Z,28.10
2022-10-28T12:33:58.684Z,28.10
2022-10-28T12:36:39.201Z,28.00
2022-10-28T12:39:30.277Z,28.00
2022-10-28T12:42:09.640Z,27.90
2022-10-28T12:44:37.792Z,27.80
2022-10-28T12:47:24.302Z,27.70
2022-10-28T12:50:25.853Z,27.70
2022-10-28T12:52:58.858Z,27.70
2022-10-28T12:55:39.939Z,27.50
2022-10-28T12:58:15.846Z,27.50
2022-10-28T13:00:46.918Z,27.40
2022-10-28T13:03:14.905Z,27.40
2022-10-28T13:05:50.501Z,27.40
2022-10-28T13:08:29.424Z,27.40
2022-10-28T13:11:20.997Z,27.40
2022-10-28T13:13:56.703Z,27.20
2022-10-28T13:16:35.485Z,27.20
2022-10-28T13:19:32.814Z,27.20
2022-10-28T13:22:29.978Z,27.10
2022-10-28T13:25:05.409Z,27.20
2022-10-28T13:27:32.272Z,27.30
2022-10-28T13:30:00.428Z,27.20
2022-10-28T13:32:38.958Z,27.30
2022-10-28T13:35:22.612Z,27.30
2022-10-28T13:37:51.594Z,27.30
2022-10-28T13:40:30.608Z,27.20
2022-10-28T13:42:58.412Z,27.30
2022-10-28T13:45:44.874Z,27.30
2022-10-28T13:48:29.634Z,27.30
2022-10-28T13:51:11.300Z,27.30
2022-10-28T13:53:46.628Z,27.30
2022-10-28T13:56:25.207Z,27.30
2022-10-28T13:59:25.640Z,27.30
2022-10-28T14:02:07.372Z,27.30
2022-10-28T14:04:41.811Z,27.40
2022-10-28T14:07:11.349Z,27.40
2022-10-28T14:09:41.315Z,27.50
2022-10-28T14:12:22.207Z,27.50
2022-10-28T14:15:02.635Z,27.50
2022-10-28T14:17:40.477Z,27.40
2022-10-28T14:20:21.348Z,27.40
2022-10-28T14:22:48.416Z,27.40
2022-10-28T14:25:46.153Z,27.40
2022-10-28T14:28:28.223Z,27.50
2022-10-28T14:31:11.226Z,27.50
2022-10-28T14:33:43.421Z,27.40
2022-10-28T14:36:21.812Z,27.30
2022-10-28T14:39:03.393Z,27.30
2022-10-28T14:42:00.326Z,27.30
2022-10-28T14:44:47.542Z,27.30
2022-10-28T14:47:39.498Z,27.30
2022-10-28T14:50:16.674Z,27.20
2022-10-28T14:52:44.570Z,27.20
2022-10-28T14:55:24.965Z,27.00
2022-10-28T14:57:51.829Z,27.00
2022-10-28T15:00:25.828Z,26.90
2022-10-28T15:02:53.900Z,26.90
2022-10-28T15:05:24.018Z,26.90
2022-10-28T15:07:51.210Z,26.80
2022-10-28T15:10:30.451Z,26.80
2022-10-28T15:12:58.776Z,26.80
2022-10-28T15:15:28.301Z,26.80
2022-10-28T15:17:55.583Z,26.70
2022-10-28T15:20:24.045Z,26.60
2022-10-28T15:22:51.666Z,26.60
2022-10-28T15:25:20.568Z,26.60
2022-10-28T15:27:50.882Z,26.50
2022-10-28T15:30:26.394Z,26.50
2022-10-28T15:32:54.555Z,26.40
2022-10-28T15:35:30.434Z,26.40
2022-10-28T15:38:00.869Z,26.30
2022-10-28T15:40:32.857Z,26.20
2022-10-28T15:43:02.229Z,26.20
2022-10-28T15:45:31.463Z,26.20
2022-10-28T15:47:59.944Z,26.10
2022-10-28T15:50:32.020Z,26.00
2022-10-28T15:53:07.530Z,26.00
2022-10-28T15:55:41.461Z,25.90
2022-10-28T15:58:31.415Z,25.90
2022-10-28T16:00:58.760Z,25.90
2022-10-28T16:03:40.115Z,25.80
2022-10-28T16:06:20.075Z,25.80
2022-10-28T16:08:47.595Z,25.80
2022-10-28T16:11:18.622Z,25.70
2022-10-28T16:13:48.891Z,25.60
2022-10-28T16:16:25.072Z,25.70
2022-10-28T16:19:01.980Z,25.70
2022-10-28T16:21:28.694Z,25.70
2022-10-28T16:24:01.702Z,25.60
2022-10-28T16:26:30.776Z,25.60
2022-10-28T16:28:57.352Z,25.60
2022-10-28T16:31:27.207Z,25.50
2022-10-28T16:33:54.166Z,25.50
2022-10-28T16:36:20.801Z,25.50
2022-10-28T16:38:47.397Z,25.50
2022-10-28T16:41:17.625Z,25.40
2022-10-28T16:43:44.974Z,25.30
2022-10-28T16:46:12.889Z,25.40
2022-10-28T16:48:40.200Z,25.40
2022-10-28T16:51:13.862Z,25.40
2022-10-28T16:53:42.469Z,25.40
2022-10-28T16:56:13.583Z,25.40
2022-10-28T16:58:44.475Z,25.30
2022-10-28T17:01:11.747Z,25.30
2022-10-28T17:03:38.525Z,25.30
2022-10-28T17:06:05.337Z,25.30
2022-10-28T17:09:00.764Z,25.30
2022-10-28T17:11:18.720Z,25.20
2022-10-28T17:13:45.406Z,25.20
2022-10-28T17:16:12.808Z,25.20
2022-10-28T17:18:40.040Z,25.10
2022-10-28T17:21:06.623Z,25.10
2022-10-28T17:23:33.165Z,25.10
2022-10-28T17:26:02.533Z,25.00
2022-10-28T17:28:29.229Z,25.00
2022-10-28T17:31:05.773Z,25.00
2022-10-28T17:33:32.590Z,25.00
2022-10-28T17:36:03.339Z,24.90
2022-10-28T17:38:30.177Z,24.90
2022-10-28T17:40:57.679Z,24.80
2022-10-28T17:43:24.542Z,24.70
2022-10-28T17:45:51.254Z,24.70
2022-10-28T17:48:17.905Z,24.70
2022-10-28T17:50:45.089Z,24.70
2022-10-28T17:53:11.743Z,24.60
2022-10-28T17:55:38.512Z,24.60
2022-10-28T17:58:05.194Z,24.60
2022-10-28T18:00:31.790Z,24.50
2022-10-28T18:02:58.564Z,24.50
2022-10-28T18:05:25.253Z,24.40
2022-10-28T18:07:55.230Z,24.40
2022-10-28T18:10:22.038Z,24.30
2022-10-28T18:12:51.261Z,24.30
2022-10-28T18:15:17.910Z,24.30
2022-10-28T18:17:50.133Z,24.20
2022-10-28T18:20:17.933Z,24.20
2022-10-28T18:22:44.474Z,24.10
2022-10-28T18:25:11.054Z,24.10
2022-10-28T18:27:38.293Z,24.20
2022-10-28T18:30:05.449Z,24.10
2022-10-28T18:32:32.715Z,24.10
2022-10-28T18:34:59.473Z,24.10
2022-10-28T18:37:28.293Z,24.10
2022-10-28T18:39:54.834Z,24.00
2022-10-28T18:42:22.069Z,24.00
2022-10-28T18:44:49.036Z,24.00
2022-10-28T18:47:15.614Z,24.00
2022-10-28T18:49:45.301Z,24.00
2022-10-28T18:52:11.838Z,23.90
2022-10-28T18:54:38.414Z,23.90
2022-10-28T18:57:04.994Z,23.80
2022-10-28T18:59:31.567Z,23.80
2022-10-28T19:01:58.469Z,23.80
2022-10-28T19:04:25.227Z,23.80
2022-10-28T19:06:51.866Z,23.80
2022-10-28T19:09:18.438Z,23.70
2022-10-28T19:11:45.012Z,23.60
2022-10-28T19:14:11.615Z,23.50
2022-10-28T19:16:38.296Z,23.50
2022-10-28T19:19:05.643Z,23.50
2022-10-28T19:21:33.085Z,23.40
2022-10-28T19:24:01.211Z,23.40
2022-10-28T19:26:28.179Z,23.30
2022-10-28T19:28:54.769Z,23.30
2022-10-28T19:31:25.225Z,23.40
2022-10-28T19:33:53.076Z,23.30
2022-10-28T19:36:24.546Z,23.20
2022-10-28T19:38:55.411Z,23.10
2022-10-28T19:41:27.307Z,23.10
2022-10-28T19:43:59.095Z,23.00
2022-10-28T19:46:33.829Z,23.10
2022-10-28T19:49:03.050Z,23.00
2022-10-28T19:51:32.122Z,23.00
2022-10-28T19:54:00.700Z,23.00
2022-10-28T19:56:28.776Z,22.90
2022-10-28T19:58:57.834Z,22.90
2022-10-28T20:01:26.501Z,22.90
2022-10-28T20:03:54.790Z,22.90
2022-10-28T20:06:26.514Z,22.90
2022-10-28T20:08:53.446Z,22.90
2022-10-28T20:11:26.228Z,22.80
2022-10-28T20:13:58.468Z,22.80
2022-10-28T20:16:25.592Z,22.70
2022-10-28T20:18:53.974Z,22.80
2022-10-28T20:21:22.058Z,22.80
2022-10-28T20:26:18.083Z,22.70
2022-10-28T20:28:44.657Z,22.60
2022-10-28T20:31:16.836Z,22.60
2022-10-28T20:33:44.837Z,22.60
2022-10-28T20:36:39.163Z,22.50
2022-10-28T20:39:17.749Z,22.50
2022-10-28T20:41:46.258Z,22.50
2022-10-28T20:44:13.074Z,22.40
2022-10-28T20:46:40.152Z,22.30
2022-10-28T20:49:08.582Z,22.30
2022-10-28T20:51:35.906Z,22.20
2022-10-28T20:54:03.028Z,22.20
2022-10-28T20:56:36.045Z,22.20
2022-10-28T20:59:03.133Z,22.20
2022-10-28T21:01:35.403Z,22.20
2022-10-28T21:04:05.090Z,22.10
2022-10-28T21:06:31.990Z,22.10
2022-10-28T21:09:00.049Z,22.00
2022-10-28T21:11:28.288Z,22.00
2022-10-28T21:14:00.623Z,21.90
2022-10-28T21:16:30.696Z,21.80
2022-10-28T21:18:59.009Z,21.80
2022-10-28T21:21:25.989Z,21.70
2022-10-28T21:23:52.581Z,21.60
2022-10-28T21:26:19.430Z,21.60
2022-10-28T21:28:50.274Z,21.50
2022-10-28T21:31:18.146Z,21.50
2022-10-28T21:33:45.393Z,21.40
2022-10-28T21:36:17.954Z,21.30
2022-10-28T21:38:44.985Z,21.30
2022-10-28T21:41:12.479Z,21.30
2022-10-28T21:43:41.678Z,21.20
2022-10-28T21:46:08.938Z,21.20
2022-10-28T21:48:37.148Z,21.10
2022-10-28T21:51:09.868Z,21.10
2022-10-28T21:53:42.134Z,21.10
2022-10-28T21:56:16.505Z,21.10
2022-10-28T21:58:44.355Z,21.00
2022-10-28T22:01:20.052Z,20.90
2022-10-28T22:03:47.183Z,20.90
2022-10-28T22:06:14.461Z,20.90
2022-10-28T22:08:41.298Z,20.90
2022-10-28T22:11:13.219Z,20.80
2022-10-28T22:13:40.157Z,20.70
2022-10-28T22:16:10.396Z,20.70
2022-10-28T22:18:37.913Z,20.70
2022-10-28T22:21:13.260Z,20.70
2022-10-28T22:23:40.321Z,20.60
2022-10-28T22:26:12.510Z,20.60
2022-10-28T22:28:39.667Z,20.60
2022-10-28T22:31:11.536Z,20.50
2022-10-28T22:33:38.586Z,20.40
2022-10-28T22:36:07.515Z,20.30
2022-10-28T22:38:34.318Z,20.30
2022-10-28T22:41:12.833Z,20.30
2022-10-28T22:43:40.577Z,20.40
2022-10-28T22:46:07.698Z,20.30
2022-10-28T22:48:34.265Z,20.30
2022-10-28T22:51:01.593Z,20.30
2022-10-28T22:53:28.329Z,20.20
2022-10-28T22:55:56.150Z,20.30
2022-10-28T22:58:23.931Z,20.20
2022-10-28T23:00:50.982Z,20.20
2022-10-28T23:03:17.986Z,20.20
2022-10-28T23:05:44.692Z,20.20
2022-10-28T23:08:15.327Z,20.10
2022-10-28T23:10:41.933Z,20.00
2022-10-28T23:13:11.817Z,19.90
2022-10-28T23:15:38.449Z,20.00
2022-10-28T23:18:05.044Z,20.00
2022-10-28T23:20:31.604Z,20.00
2022-10-28T23:22:58.205Z,20.00
2022-10-28T23:25:24.943Z,20.00
2022-10-28T23:27:51.566Z,20.00
2022-10-28T23:30:18.212Z,20.00
2022-10-28T23:32:44.804Z,20.00
2022-10-28T23:35:11.529Z,19.90
2022-10-28T23:37:38.110Z,20.00
2022-10-28T23:40:06.372Z,19.90
2022-10-28T23:42:32.973Z,19.90
2022-10-28T23:44:59.629Z,19.90
2022-10-28T23:47:26.211Z,19.80
2022-10-28T23:49:52.914Z,19.80
2022-10-28T23:52:19.508Z,19.80
2022-10-28T23:54:46.105Z,19.80
2022-10-28T23:57:12.819Z,19.70
2022-10-28T23:59:39.422Z,19.70
